Strona główna
METAR-TAF:

METAR-TAF

Lotnisko :

Port lotniczy Banja Luka

Banja Luka, Bośnia i Hercegowina

Szerokość geograficzna: 44-47N, Długość geograficzna: 017-13E, wysokość: 156 m

Aktualna obserwacja pogody

Raport powstał 40 minut temu, godzina 03:00 UTC
Wiatr 4 kt od południowo-południowy wschód
Temperatura 2°C
Wilgotność 80%
Ciśnienie 1024 hPa
Widzialność 10 km lub więcej
Brak chmur poniżej 1500 m i brak chmur cumulonimbus

METAR: LQBK 090300Z 16004KT CAVOK 02/M01 Q1024 NOSIG

czas: 05:40 (03:40 UTC)

Prognoza

Raport powstał 4 godziny i 40 minut temu, godzina 23:00 UTC
Prognoza ważna od 09 godzina 00 UTC do 09 godzina 24 UTC
Wiatr 2 kt z kierunków zmiennych
Widzialność 10 km lub więcej
Brak chmur poniżej 1500 m i brak chmur cumulonimbus

TAF: LQBK 082300Z 0900/0924 VRB02KT CAVOK TX22/0914Z TN00/0903Z

Obserwacja i prognoza pogody dla ponad 4000 lotnisk (raport METAR i TAF).

Dostępne stacje oznaczono żółtymi i czerwonymi punktami na mapie.

Najedź kursorem aby zobaczyć nazwę stacji.

Kliknij aby zobaczyć obserwacje i prognozy pogody.

Aby zmienić mapę: kliknij na zielony przycisk z czarnym krzyżykiem, aby powiększyć; na zielony przycisk z myślnikiem, aby pomniejszyć; na zielone strzałki, aby przejść do map sąsiednich.


METAR-TAF: